createdAt,value
2019-04-04T00:00:39.139Z,9.40
2019-04-04T00:03:12.768Z,10.17
2019-04-04T00:05:46.452Z,9.30
2019-04-04T00:08:20.148Z,9.20
2019-04-04T00:10:53.875Z,8.90
2019-04-04T00:13:27.497Z,9.17
2019-04-04T00:16:01.236Z,10.70
2019-04-04T00:18:34.929Z,10.40
2019-04-04T00:21:08.660Z,10.40
2019-04-04T00:23:42.285Z,10.37
2019-04-04T00:26:15.934Z,11.03
2019-04-04T00:28:49.593Z,10.27
2019-04-04T00:31:23.288Z,10.83
2019-04-04T00:33:56.952Z,10.90
2019-04-04T00:36:33.822Z,10.13
2019-04-04T00:39:09.482Z,10.93
2019-04-04T00:41:44.954Z,9.77
2019-04-04T00:44:19.093Z,10.53
2019-04-04T00:46:52.842Z,10.33
2019-04-04T00:49:26.537Z,9.83
2019-04-04T00:52:00.214Z,9.80
2019-04-04T00:54:33.897Z,15.87
2019-04-04T00:57:07.563Z,19.80
2019-04-04T00:59:41.061Z,36.33
2019-04-04T01:02:14.715Z,17.90
2019-04-04T01:04:48.455Z,12.33
2019-04-04T01:07:22.015Z,14.23
2019-04-04T01:09:56.216Z,25.83
2019-04-04T01:12:29.844Z,38.90
2019-04-04T01:15:03.996Z,49.77
2019-04-04T01:17:37.695Z,20.47
2019-04-04T01:20:11.956Z,15.67
2019-04-04T01:22:45.690Z,11.63
2019-04-04T01:25:19.379Z,23.07
2019-04-04T01:27:53.086Z,15.07
2019-04-04T01:30:26.742Z,14.23
2019-04-04T01:33:03.477Z,10.00
2019-04-04T01:35:36.359Z,10.73
2019-04-04T01:38:09.988Z,10.07
2019-04-04T01:40:43.652Z,10.23
2019-04-04T01:43:17.355Z,11.40
2019-04-04T01:45:51.087Z,10.83
2019-04-04T01:48:24.702Z,10.27
2019-04-04T01:50:58.421Z,9.90
2019-04-04T01:53:31.965Z,11.13
2019-04-04T01:56:06.803Z,10.97
2019-04-04T01:58:41.742Z,10.17
2019-04-04T02:01:16.633Z,9.37
2019-04-04T02:03:51.830Z,10.30
2019-04-04T02:06:28.383Z,9.40
2019-04-04T02:09:02.855Z,8.87
2019-04-04T02:11:37.616Z,9.30
2019-04-04T02:14:11.879Z,9.57
2019-04-04T02:16:50.775Z,9.07
2019-04-04T02:19:24.550Z,10.73
2019-04-04T02:21:57.894Z,9.50
2019-04-04T02:24:32.436Z,9.60
2019-04-04T02:27:06.945Z,9.93
2019-04-04T02:29:41.838Z,9.87
2019-04-04T02:32:17.805Z,9.63
2019-04-04T02:34:51.513Z,9.10
2019-04-04T02:37:25.601Z,9.50
2019-04-04T02:39:59.263Z,9.93
2019-04-04T02:42:33.150Z,10.50
2019-04-04T02:45:07.452Z,10.83
2019-04-04T02:47:41.205Z,10.30
2019-04-04T02:50:14.882Z,10.20
2019-04-04T02:52:48.539Z,10.87
2019-04-04T02:55:22.198Z,11.80
2019-04-04T02:57:55.891Z,10.70
2019-04-04T03:00:29.623Z,10.83
2019-04-04T03:03:05.486Z,9.87
2019-04-04T03:05:38.706Z,9.27
2019-04-04T03:08:12.421Z,9.67
2019-04-04T03:10:49.237Z,7.90
2019-04-04T03:13:22.341Z,8.40
2019-04-04T03:15:55.994Z,8.87
2019-04-04T03:18:29.681Z,9.33
2019-04-04T03:21:03.404Z,8.13
2019-04-04T03:23:37.119Z,8.03
2019-04-04T03:26:10.818Z,7.70
2019-04-04T03:28:44.443Z,8.00
2019-04-04T03:31:18.173Z,8.83
2019-04-04T03:33:51.799Z,8.30
2019-04-04T03:36:25.526Z,7.50
2019-04-04T03:38:59.078Z,8.50
2019-04-04T03:41:35.858Z,8.40
2019-04-04T03:44:08.002Z,7.37
2019-04-04T03:46:41.647Z,7.90
2019-04-04T03:49:15.271Z,6.33
2019-04-04T03:51:48.995Z,6.50
2019-04-04T03:54:24.196Z,6.60
2019-04-04T03:56:57.853Z,7.40
2019-04-04T03:59:32.521Z,7.70
2019-04-04T04:02:06.929Z,7.90
2019-04-04T04:04:40.610Z,8.63
2019-04-04T04:07:15.320Z,8.23
2019-04-04T04:09:49.192Z,10.43
2019-04-04T04:12:22.773Z,8.97
2019-04-04T04:14:56.483Z,9.73
2019-04-04T04:17:30.202Z,9.67
2019-04-04T04:20:04.932Z,9.97
2019-04-04T04:22:38.595Z,10.70
2019-04-04T04:25:12.713Z,9.43
2019-04-04T04:27:48.479Z,12.83
2019-04-04T04:30:22.141Z,14.30
2019-04-04T04:32:57.274Z,12.00
2019-04-04T04:35:31.237Z,14.63
2019-04-04T04:38:04.896Z,13.00
2019-04-04T04:40:38.591Z,13.07
2019-04-04T04:43:15.269Z,10.93
2019-04-04T04:45:47.541Z,12.33
2019-04-04T04:48:21.176Z,14.93
2019-04-04T04:50:54.916Z,13.07
2019-04-04T04:53:28.608Z,12.83
2019-04-04T04:56:02.745Z,13.47
2019-04-04T04:58:36.424Z,13.93
2019-04-04T05:01:10.143Z,15.37
2019-04-04T05:03:43.821Z,14.80
2019-04-04T05:06:17.548Z,13.67
2019-04-04T05:08:51.193Z,15.40
2019-04-04T05:11:24.919Z,14.43
2019-04-04T05:13:58.848Z,17.03
2019-04-04T05:16:32.647Z,15.27
2019-04-04T05:19:06.359Z,14.63
2019-04-04T05:21:40.022Z,12.87
2019-04-04T05:24:13.651Z,14.00
2019-04-04T05:26:47.320Z,17.80
2019-04-04T05:29:21.059Z,16.37
2019-04-04T05:31:54.808Z,14.67
2019-04-04T05:34:30.388Z,14.57
2019-04-04T05:37:05.093Z,13.13
2019-04-04T05:39:39.260Z,14.43
2019-04-04T05:42:13.055Z,13.87
2019-04-04T05:44:46.692Z,14.27
2019-04-04T05:47:22.866Z,13.77
2019-04-04T05:49:55.729Z,14.80
2019-04-04T05:52:30.464Z,14.23
2019-04-04T05:55:05.165Z,14.17
2019-04-04T05:57:38.827Z,14.00
2019-04-04T06:00:13.907Z,13.13
2019-04-04T06:02:47.636Z,15.37
2019-04-04T06:05:21.297Z,14.00
2019-04-04T06:07:55.017Z,13.93
2019-04-04T06:10:28.767Z,13.60
2019-04-04T06:13:02.434Z,15.23
2019-04-04T06:15:36.068Z,14.10
2019-04-04T06:18:11.815Z,15.27
2019-04-04T06:20:48.325Z,13.23
2019-04-04T06:23:20.674Z,14.77
2019-04-04T06:25:54.369Z,14.43
2019-04-04T06:28:28.081Z,15.00
2019-04-04T06:31:01.740Z,14.90
2019-04-04T06:33:35.963Z,15.07
2019-04-04T06:36:09.642Z,15.90
2019-04-04T06:38:43.304Z,15.67
2019-04-04T06:41:16.971Z,16.27
2019-04-04T06:43:50.705Z,16.13
2019-04-04T06:46:24.380Z,15.60
2019-04-04T06:48:58.015Z,15.07
2019-04-04T06:51:31.744Z,17.40
2019-04-04T06:54:05.443Z,18.73
2019-04-04T06:56:39.191Z,18.40
2019-04-04T06:59:12.909Z,19.77
2019-04-04T07:01:46.619Z,18.30
2019-04-04T07:04:20.343Z,22.93
2019-04-04T07:06:54.008Z,22.93
2019-04-04T07:09:27.648Z,26.47
2019-04-04T07:12:01.314Z,28.70
2019-04-04T07:14:45.089Z,29.13
2019-04-04T07:17:10.380Z,27.47
2019-04-04T07:19:45.925Z,25.00
2019-04-04T07:22:20.617Z,30.97
2019-04-04T07:24:54.429Z,26.63
2019-04-04T07:27:28.519Z,29.27
2019-04-04T07:30:02.013Z,51.17
2019-04-04T07:32:35.676Z,66.87
2019-04-04T07:35:09.303Z,54.57
2019-04-04T07:37:43.035Z,39.40
2019-04-04T07:40:16.736Z,56.53
2019-04-04T07:42:50.388Z,51.33
2019-04-04T07:45:26.127Z,114.27
2019-04-04T07:47:59.428Z,103.40
2019-04-04T07:50:33.154Z,80.17
2019-04-04T07:53:06.865Z,46.47
2019-04-04T07:55:42.196Z,49.23
2019-04-04T07:58:16.019Z,52.57
2019-04-04T08:00:49.785Z,46.30
2019-04-04T08:03:23.550Z,36.93
2019-04-04T08:05:57.289Z,35.67
2019-04-04T08:08:30.864Z,36.30
2019-04-04T08:11:04.640Z,58.33
2019-04-04T08:13:38.375Z,36.93
2019-04-04T08:16:12.035Z,34.30
2019-04-04T08:18:45.731Z,30.50
2019-04-04T08:21:19.391Z,32.13
2019-04-04T08:23:53.088Z,29.20
2019-04-04T08:26:26.835Z,26.80
2019-04-04T08:29:00.536Z,27.57
2019-04-04T08:31:34.207Z,27.57
2019-04-04T08:34:07.853Z,23.30
2019-04-04T08:36:41.575Z,24.20
2019-04-04T08:39:15.173Z,19.67
2019-04-04T08:41:48.846Z,20.03
2019-04-04T08:44:22.551Z,23.60
2019-04-04T08:46:56.280Z,21.27
2019-04-04T08:49:29.935Z,22.73
2019-04-04T08:52:15.867Z,23.80
2019-04-04T08:54:38.887Z,24.37
2019-04-04T08:57:12.514Z,24.57
2019-04-04T08:59:46.236Z,24.43
2019-04-04T09:02:20.150Z,20.80
2019-04-04T09:04:53.898Z,22.57
2019-04-04T09:07:27.520Z,20.50
2019-04-04T09:10:01.180Z,20.03
2019-04-04T09:12:34.971Z,19.33
2019-04-04T09:15:08.932Z,18.73
2019-04-04T09:17:42.627Z,19.37
2019-04-04T09:20:16.593Z,18.60
2019-04-04T09:22:50.298Z,19.77
2019-04-04T09:25:24.022Z,20.70
2019-04-04T09:27:57.653Z,19.13
2019-04-04T09:30:31.313Z,21.40
2019-04-04T09:33:05.019Z,21.53
2019-04-04T09:35:38.671Z,19.03
2019-04-04T09:38:12.349Z,17.93
2019-04-04T09:40:46.056Z,19.37
2019-04-04T09:43:19.919Z,19.63
2019-04-04T09:45:53.658Z,23.03
2019-04-04T09:48:27.323Z,22.67
2019-04-04T09:51:01.031Z,20.50
2019-04-04T09:53:34.760Z,20.37
2019-04-04T09:56:08.414Z,22.23
2019-04-04T09:58:42.043Z,21.87
2019-04-04T10:01:15.700Z,20.13
2019-04-04T10:03:49.409Z,19.40
2019-04-04T10:06:23.002Z,20.43
2019-04-04T10:08:56.698Z,20.20
2019-04-04T10:11:30.417Z,24.33
2019-04-04T10:14:04.353Z,24.63
2019-04-04T10:16:38.098Z,25.67
2019-04-04T10:19:11.722Z,24.90
2019-04-04T10:21:45.383Z,25.97
2019-04-04T10:24:18.945Z,23.93
2019-04-04T10:26:52.678Z,23.73
2019-04-04T10:29:26.345Z,23.17
2019-04-04T10:32:00.114Z,24.27
2019-04-04T10:34:33.779Z,21.63
2019-04-04T10:37:07.416Z,24.10
2019-04-04T10:39:41.163Z,23.57
2019-04-04T10:42:14.913Z,23.67
2019-04-04T10:44:48.536Z,25.30
2019-04-04T10:47:22.132Z,22.03
2019-04-04T10:49:58.441Z,24.20
2019-04-04T10:52:31.090Z,23.73
2019-04-04T10:55:06.516Z,25.27
2019-04-04T10:57:40.173Z,24.30
2019-04-04T11:00:15.981Z,28.53
2019-04-04T11:02:49.971Z,25.57
2019-04-04T11:05:23.627Z,30.03
2019-04-04T11:08:00.262Z,28.77
2019-04-04T11:10:33.991Z,28.70
2019-04-04T11:13:08.204Z,29.27
2019-04-04T11:15:42.038Z,27.07
2019-04-04T11:18:15.665Z,27.63
2019-04-04T11:20:49.316Z,29.93
2019-04-04T11:23:22.936Z,27.20
2019-04-04T11:25:56.594Z,29.27
2019-04-04T11:28:30.305Z,26.83
2019-04-04T11:31:04.095Z,25.00
2019-04-04T11:33:37.726Z,29.30
2019-04-04T11:36:11.464Z,27.13
2019-04-04T11:38:45.036Z,26.27
2019-04-04T11:41:18.755Z,26.17
2019-04-04T11:43:52.381Z,27.87
2019-04-04T11:46:26.027Z,29.03
2019-04-04T11:48:59.671Z,26.73
2019-04-04T11:51:33.403Z,25.73
2019-04-04T11:54:06.951Z,26.13
2019-04-04T11:56:40.621Z,26.17
2019-04-04T11:59:14.327Z,26.47
2019-04-04T12:01:49.705Z,26.60
2019-04-04T12:04:23.341Z,26.20
2019-04-04T12:06:56.922Z,25.70
2019-04-04T12:09:30.543Z,29.77
2019-04-04T12:12:04.279Z,24.23
2019-04-04T12:14:37.898Z,24.10
2019-04-04T12:17:11.476Z,26.73
2019-04-04T12:19:45.148Z,25.60
2019-04-04T12:22:18.807Z,23.70
2019-04-04T12:24:53.579Z,27.17
2019-04-04T12:27:27.240Z,25.73
2019-04-04T12:30:00.884Z,27.20
2019-04-04T12:32:34.577Z,25.10
2019-04-04T12:35:08.370Z,23.70
2019-04-04T12:37:42.028Z,24.60
2019-04-04T12:40:20.703Z,28.57
2019-04-04T12:42:51.038Z,26.67
2019-04-04T12:45:24.781Z,27.10
2019-04-04T12:47:58.507Z,27.13
2019-04-04T12:50:32.136Z,26.40
2019-04-04T12:53:05.894Z,23.63
2019-04-04T12:55:39.639Z,26.67
2019-04-04T12:58:13.356Z,27.17
2019-04-04T13:00:46.996Z,26.07
2019-04-04T13:03:22.419Z,28.40
2019-04-04T13:05:56.021Z,27.33
2019-04-04T13:08:30.701Z,26.03
2019-04-04T13:11:04.770Z,27.00
2019-04-04T13:13:39.330Z,26.17
2019-04-04T13:16:13.022Z,26.83
2019-04-04T13:18:46.720Z,27.07
2019-04-04T13:21:21.635Z,25.77
2019-04-04T13:23:55.456Z,26.03
2019-04-04T13:26:29.104Z,27.97
2019-04-04T13:29:02.740Z,25.93
2019-04-04T13:31:36.403Z,27.57
2019-04-04T13:34:10.109Z,28.80
2019-04-04T13:36:43.778Z,25.97
2019-04-04T13:39:17.472Z,27.93
2019-04-04T13:41:51.143Z,25.87
2019-04-04T13:44:24.851Z,24.67
2019-04-04T13:46:58.582Z,26.57
2019-04-04T13:49:32.212Z,29.40
2019-04-04T13:52:05.939Z,26.70
2019-04-04T13:54:39.647Z,26.53
2019-04-04T13:57:13.964Z,29.70
2019-04-04T13:59:47.660Z,25.63
2019-04-04T14:02:21.347Z,26.97
2019-04-04T14:04:55.710Z,26.83
2019-04-04T14:07:29.575Z,29.27
2019-04-04T14:10:04.197Z,30.87
2019-04-04T14:12:37.858Z,28.80
2019-04-04T14:15:12.133Z,31.00
2019-04-04T14:17:45.851Z,32.77
2019-04-04T14:20:19.515Z,31.97
2019-04-04T14:22:53.257Z,30.80
2019-04-04T14:25:29.280Z,28.90
2019-04-04T14:28:02.340Z,29.30
2019-04-04T14:30:36.031Z,28.50
2019-04-04T14:33:09.682Z,29.87
2019-04-04T14:35:43.377Z,26.80
2019-04-04T14:38:17.027Z,25.93
2019-04-04T14:40:50.658Z,27.60
2019-04-04T14:43:24.387Z,27.73
2019-04-04T14:45:58.083Z,29.37
2019-04-04T14:48:31.745Z,28.23
2019-04-04T14:51:05.524Z,33.10
2019-04-04T14:53:39.188Z,33.43
2019-04-04T14:56:12.885Z,30.40
2019-04-04T14:58:46.620Z,30.30
2019-04-04T15:01:20.364Z,30.87
2019-04-04T15:03:53.957Z,32.00
2019-04-04T15:06:27.612Z,31.50
2019-04-04T15:09:01.307Z,32.67
2019-04-04T15:11:34.935Z,32.17
2019-04-04T15:14:09.240Z,34.17
2019-04-04T15:16:42.915Z,34.17
2019-04-04T15:19:16.506Z,37.47
2019-04-04T15:21:50.058Z,35.93
2019-04-04T15:24:23.722Z,37.70
2019-04-04T15:26:57.435Z,36.47
2019-04-04T15:29:30.963Z,38.63
2019-04-04T15:32:04.771Z,37.23
2019-04-04T15:34:38.670Z,35.97
2019-04-04T15:37:12.403Z,39.07
2019-04-04T15:39:46.326Z,38.83
2019-04-04T15:42:21.604Z,40.63
2019-04-04T15:44:55.327Z,45.03
2019-04-04T15:47:28.952Z,42.93
2019-04-04T15:50:02.531Z,44.13
2019-04-04T15:52:36.244Z,45.20
2019-04-04T15:55:09.968Z,49.57
2019-04-04T15:57:43.590Z,45.10
2019-04-04T16:00:17.484Z,41.47
2019-04-04T16:02:51.176Z,46.20
2019-04-04T16:05:24.909Z,54.37
2019-04-04T16:07:58.464Z,48.00
2019-04-04T16:10:32.187Z,52.83
2019-04-04T16:13:05.818Z,52.20
2019-04-04T16:15:39.551Z,52.40
2019-04-04T16:18:13.170Z,49.33
2019-04-04T16:20:46.831Z,55.50
2019-04-04T16:23:20.464Z,51.67
2019-04-04T16:25:54.259Z,49.20
2019-04-04T16:28:27.852Z,55.47
2019-04-04T16:31:01.713Z,65.50
2019-04-04T16:33:35.317Z,58.63
2019-04-04T16:36:09.010Z,67.07
2019-04-04T16:38:42.743Z,60.63
2019-04-04T16:41:16.407Z,60.90
2019-04-04T16:43:49.962Z,62.43
2019-04-04T16:46:23.625Z,65.47
2019-04-04T16:48:57.321Z,59.33
2019-04-04T16:51:30.996Z,67.50
2019-04-04T16:54:04.816Z,64.50
2019-04-04T16:56:38.432Z,110.37
2019-04-04T16:59:12.051Z,113.53
2019-04-04T17:01:45.791Z,93.87
2019-04-04T17:04:19.491Z,109.73
2019-04-04T17:06:54.703Z,133.23
2019-04-04T17:09:28.675Z,138.93
2019-04-04T17:12:14.186Z,102.80
2019-04-04T17:14:38.318Z,105.00
2019-04-04T17:17:11.941Z,139.30
2019-04-04T17:19:45.683Z,128.90
2019-04-04T17:22:19.316Z,103.63
2019-04-04T17:24:53.066Z,157.20
2019-04-04T17:27:26.867Z,126.50
2019-04-04T17:30:00.616Z,213.80
2019-04-04T17:32:34.303Z,179.90
2019-04-04T17:35:08.655Z,222.50
2019-04-04T17:37:42.467Z,237.23
2019-04-04T17:40:16.395Z,194.20
2019-04-04T17:42:50.019Z,204.13
2019-04-04T17:45:24.071Z,225.40
2019-04-04T17:47:58.075Z,343.93
2019-04-04T17:50:32.342Z,248.00
2019-04-04T17:53:06.453Z,218.50
2019-04-04T17:55:40.232Z,202.40
2019-04-04T17:58:13.960Z,277.63
2019-04-04T18:00:47.703Z,180.63
2019-04-04T18:03:21.410Z,442.03
2019-04-04T18:05:55.151Z,297.67
2019-04-04T18:08:28.935Z,518.47
2019-04-04T18:11:02.673Z,462.87
2019-04-04T18:13:36.368Z,552.37
2019-04-04T18:16:10.040Z,290.83
2019-04-04T18:18:43.683Z,537.83
2019-04-04T18:21:17.336Z,622.57
2019-04-04T18:23:50.968Z,605.57
2019-04-04T18:26:24.709Z,357.07
2019-04-04T18:28:58.411Z,400.37
2019-04-04T18:31:32.005Z,321.23
2019-04-04T18:34:08.121Z,505.30
2019-04-04T18:36:41.468Z,401.97
2019-04-04T18:39:15.211Z,511.13
2019-04-04T18:41:48.983Z,438.73
2019-04-04T18:44:22.545Z,448.87
2019-04-04T18:46:56.281Z,511.43
2019-04-04T18:49:30.000Z,378.07
2019-04-04T18:52:03.728Z,528.33
2019-04-04T18:54:37.436Z,588.43
2019-04-04T18:57:13.162Z,485.60
2019-04-04T18:59:46.641Z,606.23
2019-04-04T19:02:20.296Z,596.87
2019-04-04T19:04:53.942Z,658.20
2019-04-04T19:07:38.674Z,422.23
2019-04-04T19:10:03.543Z,620.70
2019-04-04T19:12:37.271Z,532.03
2019-04-04T19:15:12.160Z,627.47
2019-04-04T19:17:45.898Z,617.90
2019-04-04T19:20:19.680Z,564.67
2019-04-04T19:22:54.648Z,566.40
2019-04-04T19:25:28.377Z,358.00
2019-04-04T19:28:02.001Z,428.33
2019-04-04T19:30:35.813Z,717.43
2019-04-04T19:33:09.516Z,386.57
2019-04-04T19:35:45.215Z,583.80
2019-04-04T19:38:18.892Z,663.03
2019-04-04T19:40:53.006Z,549.93
2019-04-04T19:43:26.745Z,509.37
2019-04-04T19:46:00.552Z,528.07
2019-04-04T19:48:34.255Z,462.00
2019-04-04T19:51:07.918Z,440.30
2019-04-04T19:53:41.623Z,612.03
2019-04-04T19:56:15.294Z,398.40
2019-04-04T19:58:49.002Z,527.07
2019-04-04T20:01:25.519Z,589.37
2019-04-04T20:03:58.110Z,537.00
2019-04-04T20:06:31.848Z,626.57
2019-04-04T20:09:07.031Z,684.97
2019-04-04T20:11:40.772Z,494.23
2019-04-04T20:14:14.408Z,517.73
2019-04-04T20:16:48.682Z,463.83
2019-04-04T20:19:22.416Z,394.50
2019-04-04T20:21:56.568Z,473.47
2019-04-04T20:24:30.509Z,435.53
2019-04-04T20:27:04.140Z,614.43
2019-04-04T20:29:37.811Z,578.80
2019-04-04T20:32:11.545Z,437.83
2019-04-04T20:34:45.195Z,569.10
2019-04-04T20:37:18.860Z,821.60
2019-04-04T20:39:52.563Z,532.33
2019-04-04T20:42:26.308Z,603.40
2019-04-04T20:45:00.006Z,743.83
2019-04-04T20:47:34.012Z,521.97
2019-04-04T20:50:08.119Z,647.33
2019-04-04T20:52:41.784Z,542.13
2019-04-04T20:55:15.497Z,652.23
2019-04-04T20:57:49.240Z,520.97
2019-04-04T21:00:22.872Z,506.70
2019-04-04T21:02:56.539Z,559.00
2019-04-04T21:05:30.175Z,648.93
2019-04-04T21:08:03.901Z,536.60
2019-04-04T21:10:37.541Z,621.50
2019-04-04T21:13:11.279Z,485.37
2019-04-04T21:15:44.987Z,514.90
2019-04-04T21:18:18.643Z,536.27
2019-04-04T21:20:52.344Z,494.83
2019-04-04T21:23:26.011Z,546.13
2019-04-04T21:25:59.642Z,427.80
2019-04-04T21:28:33.372Z,451.03
2019-04-04T21:31:07.068Z,506.97
2019-04-04T21:33:40.727Z,473.53
2019-04-04T21:36:14.359Z,542.73
2019-04-04T21:38:48.082Z,569.77
2019-04-04T21:41:21.791Z,707.03
2019-04-04T21:44:07.901Z,503.23
2019-04-04T21:46:30.816Z,567.77
2019-04-04T21:49:04.556Z,554.90
2019-04-04T21:51:38.222Z,609.67
2019-04-04T21:54:11.795Z,430.17
2019-04-04T21:56:45.526Z,401.30
2019-04-04T21:59:19.335Z,441.40
2019-04-04T22:01:52.965Z,629.33
2019-04-04T22:04:26.706Z,399.93
2019-04-04T22:07:00.429Z,682.67
2019-04-04T22:09:34.160Z,513.60
2019-04-04T22:12:07.879Z,488.77
2019-04-04T22:14:41.627Z,637.83
2019-04-04T22:17:15.368Z,431.67
2019-04-04T22:19:48.997Z,530.27
2019-04-04T22:22:22.665Z,453.70
2019-04-04T22:24:56.288Z,571.90
2019-04-04T22:27:30.033Z,333.77
2019-04-04T22:30:05.737Z,495.70
2019-04-04T22:32:39.469Z,449.47
2019-04-04T22:35:13.172Z,621.93
2019-04-04T22:37:46.976Z,526.23
2019-04-04T22:40:20.628Z,516.87
2019-04-04T22:42:54.363Z,446.97
2019-04-04T22:45:28.085Z,391.07
2019-04-04T22:48:01.899Z,400.97
2019-04-04T22:50:35.592Z,430.30
2019-04-04T22:53:09.339Z,424.40
2019-04-04T22:55:42.992Z,510.63
2019-04-04T22:58:27.644Z,416.27
2019-04-04T23:00:51.995Z,454.03
2019-04-04T23:03:26.592Z,326.83
2019-04-04T23:06:00.345Z,534.97
2019-04-04T23:08:33.986Z,375.47
2019-04-04T23:11:07.780Z,374.50
2019-04-04T23:13:41.536Z,575.83
2019-04-04T23:16:15.269Z,442.30
2019-04-04T23:18:48.982Z,638.50
2019-04-04T23:21:22.722Z,583.37
2019-04-04T23:23:56.477Z,382.10
2019-04-04T23:26:30.176Z,495.30
2019-04-04T23:29:03.858Z,528.63
2019-04-04T23:31:37.560Z,590.90
2019-04-04T23:34:11.232Z,649.53
2019-04-04T23:36:44.948Z,559.50
2019-04-04T23:39:18.599Z,577.03
2019-04-04T23:41:52.231Z,645.93
2019-04-04T23:44:25.963Z,723.80
2019-04-04T23:46:59.620Z,661.60
2019-04-04T23:49:33.291Z,375.63
2019-04-04T23:52:06.919Z,344.30
2019-04-04T23:54:40.579Z,502.03
2019-04-04T23:57:14.220Z,481.43
2019-04-04T23:59:47.887Z,459.17
